Time;durP1;ratioP1;P1;durP2;ratioP2;P2;SDS_P1;SDS_P2;PMS_P1;PMS_P2;Temp;Humidity;BMP_temperature;BMP_pressure;BME280_temperature;BME280_humidity;BME280_pressure;Samples;Min_cycle;Max_cycle;Signal;HPM_P1;HPM_P2
2021/08/19 00:01:43;;;;;;;16.30;11.73;;;16.50;99.90;;;;;;5053922;28;20225;-62
2021/08/19 00:04:10;;;;;;;20.60;13.87;;;16.50;99.90;;;;;;5054412;28;20210;-62
2021/08/19 00:06:36;;;;;;;18.80;12.47;;;16.50;99.90;;;;;;5054047;28;20210;-62
2021/08/19 00:09:03;;;;;;;17.80;13.30;;;16.50;99.90;;;;;;5054077;28;20209;-62
2021/08/19 00:11:31;;;;;;;18.70;13.30;;;16.50;99.90;;;;;;5053974;28;20267;-62
2021/08/19 00:13:57;;;;;;;18.97;13.90;;;16.50;1.00;;;;;;5053942;28;20355;-62
2021/08/19 00:16:24;;;;;;;20.20;14.27;;;16.60;99.90;;;;;;5053831;28;20210;-62
2021/08/19 00:18:51;;;;;;;21.03;14.10;;;16.60;99.90;;;;;;5054100;28;20206;-62
2021/08/19 00:21:18;;;;;;;18.90;13.77;;;16.60;99.90;;;;;;5053242;28;20738;-62
2021/08/19 00:23:44;;;;;;;19.93;14.50;;;16.60;1.00;;;;;;5053734;28;20248;-62
2021/08/19 00:26:11;;;;;;;20.33;14.77;;;16.60;1.00;;;;;;5053753;28;20209;-62
2021/08/19 00:28:39;;;;;;;20.87;14.13;;;16.60;1.00;;;;;;5053537;28;20221;-62
2021/08/19 00:31:06;;;;;;;18.50;14.10;;;16.60;1.00;;;;;;5053628;28;20830;-62
2021/08/19 00:33:32;;;;;;;22.60;16.10;;;16.60;1.00;;;;;;5053620;28;20249;-62
2021/08/19 00:35:59;;;;;;;22.93;15.60;;;16.60;1.00;;;;;;5053671;28;20556;-62
2021/08/19 00:38:26;;;;;;;21.53;15.67;;;16.50;1.00;;;;;;5053552;28;20211;-62
2021/08/19 00:40:53;;;;;;;22.87;15.33;;;16.60;1.00;;;;;;5053443;28;20270;-62
2021/08/19 00:43:20;;;;;;;19.87;14.77;;;16.60;1.00;;;;;;5053082;28;20206;-62
2021/08/19 00:45:48;;;;;;;22.60;15.20;;;16.60;1.00;;;;;;5053206;28;20662;-62
2021/08/19 00:48:15;;;;;;;22.67;16.10;;;16.60;1.00;;;;;;5053299;28;20256;-62
2021/08/19 00:50:43;;;;;;;22.93;15.10;;;16.60;1.00;;;;;;5053350;28;20201;-62
2021/08/19 00:53:10;;;;;;;21.87;15.10;;;16.60;1.00;;;;;;5053325;28;20248;-62
2021/08/19 00:55:37;;;;;;;23.20;15.43;;;16.60;1.00;;;;;;5053044;28;20255;-62
2021/08/19 00:58:04;;;;;;;21.60;15.40;;;16.60;1.00;;;;;;5053091;28;20259;-62
2021/08/19 01:00:31;;;;;;;21.87;15.33;;;16.60;1.00;;;;;;5053085;28;20209;-62
2021/08/19 01:02:59;;;;;;;23.13;16.17;;;16.60;1.00;;;;;;5053186;28;20260;-62
2021/08/19 01:05:28;;;;;;;23.60;15.87;;;16.60;1.00;;;;;;5052878;28;20206;-62
2021/08/19 01:07:55;;;;;;;23.33;15.70;;;16.60;1.00;;;;;;5052969;28;20275;-63
2021/08/19 01:10:22;;;;;;;25.00;16.20;;;16.60;1.00;;;;;;5052900;28;20260;-62
2021/08/19 01:12:48;;;;;;;25.43;17.30;;;16.60;1.00;;;;;;5052771;28;20241;-62
2021/08/19 01:15:15;;;;;;;28.03;16.20;;;16.60;1.00;;;;;;5052673;28;20267;-62
2021/08/19 01:17:42;;;;;;;27.50;16.27;;;16.60;1.00;;;;;;5052997;28;20202;-62
2021/08/19 01:20:11;;;;;;;23.37;15.97;;;16.60;1.00;;;;;;5052669;28;20260;-62
2021/08/19 01:22:38;;;;;;;23.03;15.53;;;16.70;1.00;;;;;;5052681;28;20221;-62
2021/08/19 01:25:05;;;;;;;24.03;17.03;;;16.70;1.00;;;;;;5052359;28;20213;-62
2021/08/19 01:27:33;;;;;;;24.50;17.20;;;16.70;1.00;;;;;;5052556;28;20229;-62
2021/08/19 01:30:00;;;;;;;24.70;16.60;;;16.70;1.00;;;;;;5052603;28;20267;-62
2021/08/19 01:32:27;;;;;;;26.40;18.60;;;16.70;1.00;;;;;;5052111;28;20226;-63
2021/08/19 01:34:54;;;;;;;28.67;17.40;;;16.60;1.00;;;;;;5052203;28;20292;-62
2021/08/19 01:37:21;;;;;;;28.33;17.53;;;16.60;1.00;;;;;;5052204;28;20288;-62
2021/08/19 01:39:47;;;;;;;26.40;18.87;;;16.60;1.00;;;;;;5052664;28;20206;-62
2021/08/19 01:42:14;;;;;;;29.13;19.53;;;16.60;1.00;;;;;;5052325;28;20229;-62
2021/08/19 01:44:42;;;;;;;26.60;17.70;;;16.70;1.00;;;;;;5052294;28;20279;-62
2021/08/19 01:47:11;;;;;;;27.90;19.00;;;16.70;1.00;;;;;;5052062;28;20674;-62
2021/08/19 01:49:38;;;;;;;25.40;18.60;;;16.70;1.00;;;;;;5052271;28;20209;-62
2021/08/19 01:52:06;;;;;;;28.80;19.83;;;16.70;1.00;;;;;;5051870;28;20226;-62
2021/08/19 01:54:33;;;;;;;27.30;19.40;;;16.60;1.00;;;;;;5052366;28;20703;-62
2021/08/19 01:57:00;;;;;;;28.00;20.10;;;16.60;1.00;;;;;;5052428;28;20209;-62
2021/08/19 01:59:27;;;;;;;31.13;20.83;;;16.60;1.00;;;;;;5052381;28;20240;-62
2021/08/19 02:01:55;;;;;;;31.40;21.80;;;16.60;1.00;;;;;;5052096;28;20282;-62
2021/08/19 02:04:22;;;;;;;31.47;20.50;;;16.60;1.00;;;;;;5052017;28;20255;-62
2021/08/19 02:06:48;;;;;;;30.73;19.50;;;16.60;1.00;;;;;;5052169;28;20625;-62
2021/08/19 02:09:15;;;;;;;31.03;19.57;;;16.60;1.00;;;;;;5052176;28;20226;-62
2021/08/19 02:11:42;;;;;;;26.83;19.73;;;16.50;32.70;;;;;;5052034;28;20291;-62
2021/08/19 02:14:09;;;;;;;30.50;20.20;;;16.50;54.80;;;;;;5051544;28;20926;-62
2021/08/19 02:16:36;;;;;;;29.97;19.27;;;16.50;64.40;;;;;;5051849;28;20558;-63
2021/08/19 02:19:04;;;;;;;32.50;19.23;;;16.50;93.10;;;;;;5051953;28;20209;-62
2021/08/19 02:21:30;;;;;;;29.93;20.10;;;16.50;99.90;;;;;;5051949;28;20263;-62
2021/08/19 02:23:57;;;;;;;30.97;19.80;;;16.50;99.90;;;;;;5051858;28;20225;-62
2021/08/19 02:26:23;;;;;;;34.20;20.63;;;16.50;99.90;;;;;;5051911;28;20255;-62
2021/08/19 02:28:50;;;;;;;31.63;20.40;;;16.50;99.90;;;;;;5051545;28;20245;-62
2021/08/19 02:31:17;;;;;;;29.93;19.77;;;16.50;99.90;;;;;;5051713;28;20230;-62
2021/08/19 02:33:43;;;;;;;33.80;19.80;;;16.50;99.90;;;;;;5051740;28;20213;-62
2021/08/19 02:36:11;;;;;;;29.20;19.53;;;16.50;99.90;;;;;;5051798;28;20259;-62
2021/08/19 02:38:38;;;;;;;30.27;19.00;;;16.50;99.90;;;;;;5051877;28;20202;-62
2021/08/19 02:41:06;;;;;;;32.90;19.37;;;16.50;99.90;;;;;;5051658;28;20228;-62
2021/08/19 02:43:34;;;;;;;28.37;19.13;;;16.50;99.90;;;;;;5051504;28;20206;-62
2021/08/19 02:46:00;;;;;;;31.90;20.17;;;16.40;99.90;;;;;;5055277;28;20202;-62
2021/08/19 02:48:27;;;;;;;32.80;20.47;;;16.40;99.90;;;;;;5055486;28;20688;-62
2021/08/19 02:50:54;;;;;;;35.93;20.43;;;16.40;99.90;;;;;;5055541;28;20287;-62
2021/08/19 02:53:22;;;;;;;30.97;20.10;;;16.40;99.90;;;;;;5055635;28;20232;-62
2021/08/19 02:55:48;;;;;;;33.37;20.57;;;16.40;99.90;;;;;;5055616;28;20205;-62
2021/08/19 02:58:15;;;;;;;32.73;21.73;;;16.40;99.90;;;;;;5055432;28;20205;-62
2021/08/19 03:00:41;;;;;;;33.00;20.63;;;16.30;99.90;;;;;;5055569;28;20263;-62
2021/08/19 03:03:08;;;;;;;33.73;21.57;;;16.30;99.90;;;;;;5055995;28;20746;-62
2021/08/19 03:05:34;;;;;;;34.03;20.27;;;16.30;99.90;;;;;;5055377;28;20263;-62
2021/08/19 03:08:01;;;;;;;28.73;20.33;;;16.30;99.90;;;;;;5055070;28;20276;-62
2021/08/19 03:10:29;;;;;;;29.63;20.33;;;16.40;99.90;;;;;;5055251;28;20206;-62
2021/08/19 03:12:56;;;;;;;29.47;20.63;;;16.40;99.90;;;;;;5055240;28;20205;-62
2021/08/19 03:15:22;;;;;;;30.77;21.03;;;16.40;99.90;;;;;;5055091;28;20287;-62
2021/08/19 03:17:49;;;;;;;31.63;20.17;;;16.40;99.90;;;;;;5055200;28;20666;-62
2021/08/19 03:20:15;;;;;;;31.83;20.13;;;16.40;99.90;;;;;;5055194;28;20255;-62
2021/08/19 03:22:42;;;;;;;27.63;19.90;;;16.30;99.90;;;;;;5054938;28;20229;-62
2021/08/19 03:25:10;;;;;;;31.60;19.77;;;16.30;99.90;;;;;;5055045;28;20202;-62
2021/08/19 03:27:38;;;;;;;34.40;20.97;;;16.30;99.90;;;;;;5054659;28;20260;-62
2021/08/19 03:30:06;;;;;;;29.97;19.77;;;16.30;99.90;;;;;;5054621;28;20214;-62
2021/08/19 03:32:33;;;;;;;32.33;19.57;;;16.30;99.90;;;;;;5054605;28;20287;-62
2021/08/19 03:34:59;;;;;;;34.97;20.90;;;16.30;99.90;;;;;;5054701;28;20218;-62
2021/08/19 03:37:27;;;;;;;36.83;20.63;;;16.30;99.90;;;;;;5054780;28;20271;-62
2021/08/19 03:39:54;;;;;;;29.20;20.10;;;16.30;99.90;;;;;;5054587;28;20201;-62
2021/08/19 03:42:20;;;;;;;37.00;21.20;;;16.30;99.90;;;;;;5054442;28;20225;-62
2021/08/19 03:44:48;;;;;;;29.87;20.23;;;16.30;99.90;;;;;;5054205;28;20636;-62
2021/08/19 03:47:15;;;;;;;32.63;21.47;;;16.30;99.90;;;;;;5054811;28;20205;-62
2021/08/19 03:49:42;;;;;;;32.43;21.00;;;16.20;99.90;;;;;;5054381;28;20229;-62
2021/08/19 03:52:08;;;;;;;34.73;22.10;;;16.20;99.90;;;;;;5054415;28;20229;-62
2021/08/19 03:54:35;;;;;;;38.23;21.47;;;16.10;99.90;;;;;;5054167;28;20210;-62
2021/08/19 03:57:02;;;;;;;38.57;23.47;;;16.10;99.90;;;;;;5053401;28;20213;-62
2021/08/19 03:59:28;;;;;;;47.23;25.37;;;16.10;99.90;;;;;;5054501;28;20232;-62
2021/08/19 04:01:56;;;;;;;42.83;24.40;;;16.10;99.90;;;;;;5054401;28;20230;-62
2021/08/19 04:04:23;;;;;;;41.60;23.23;;;16.10;99.90;;;;;;5054139;28;20205;-63
2021/08/19 04:06:49;;;;;;;31.00;21.00;;;16.10;99.90;;;;;;5054300;28;20293;-61
2021/08/19 04:09:16;;;;;;;28.87;18.70;;;16.10;99.90;;;;;;5054367;28;20221;-62
2021/08/19 04:11:43;;;;;;;26.77;17.13;;;16.10;99.90;;;;;;5053849;28;20574;-62
2021/08/19 04:14:10;;;;;;;22.07;14.83;;;16.00;99.90;;;;;;5054131;28;20214;-62
2021/08/19 04:16:37;;;;;;;24.50;15.53;;;16.00;99.90;;;;;;5054224;28;20578;-62
2021/08/19 04:19:05;;;;;;;26.63;16.07;;;16.00;99.90;;;;;;5054198;28;20202;-62
2021/08/19 04:21:31;;;;;;;26.80;16.93;;;16.00;99.90;;;;;;5054090;28;20272;-62
2021/08/19 04:23:58;;;;;;;25.67;17.17;;;16.00;99.90;;;;;;5053814;28;20209;-62
2021/08/19 04:26:26;;;;;;;30.93;20.63;;;16.00;99.90;;;;;;5053878;28;20209;-62
2021/08/19 04:28:53;;;;;;;38.10;21.93;;;16.00;99.90;;;;;;5054947;28;20241;-63
2021/08/19 04:31:19;;;;;;;37.03;21.03;;;16.00;99.90;;;;;;5054207;28;20282;-62
2021/08/19 04:33:46;;;;;;;38.87;21.97;;;16.10;99.90;;;;;;5054133;28;20239;-62
2021/08/19 04:36:14;;;;;;;43.27;22.50;;;16.10;99.90;;;;;;5054515;28;20217;-62
2021/08/19 04:38:41;;;;;;;39.57;22.67;;;16.10;99.90;;;;;;5053989;28;20210;-62
2021/08/19 04:41:07;;;;;;;42.87;22.73;;;16.20;99.90;;;;;;5053848;28;20279;-62
2021/08/19 04:43:34;;;;;;;46.77;25.70;;;16.10;99.90;;;;;;5053286;28;20210;-62
2021/08/19 04:46:00;;;;;;;49.83;26.07;;;16.10;99.90;;;;;;5053384;28;20674;-62
2021/08/19 04:48:27;;;;;;;51.23;27.73;;;16.10;99.90;;;;;;5053272;28;20260;-62
2021/08/19 04:50:54;;;;;;;51.17;26.77;;;16.10;99.90;;;;;;5053290;28;20287;-62
2021/08/19 04:53:22;;;;;;;50.40;28.03;;;16.10;99.90;;;;;;5053063;28;20201;-62
2021/08/19 04:55:48;;;;;;;48.93;26.37;;;16.20;99.90;;;;;;5053306;28;20258;-62
2021/08/19 04:58:15;;;;;;;46.77;26.03;;;16.20;99.90;;;;;;5053184;28;20351;-62
2021/08/19 05:00:42;;;;;;;51.33;26.70;;;16.20;99.90;;;;;;5053334;28;20206;-61
2021/08/19 05:03:08;;;;;;;52.13;27.40;;;16.20;99.90;;;;;;5053127;28;20287;-62
2021/08/19 05:05:35;;;;;;;55.80;27.83;;;16.10;99.90;;;;;;5052929;28;20278;-62
2021/08/19 05:08:02;;;;;;;56.23;28.53;;;16.10;99.90;;;;;;5052194;28;20549;-62
2021/08/19 05:10:30;;;;;;;47.53;26.53;;;16.10;99.90;;;;;;5052745;28;20692;-62
2021/08/19 05:12:57;;;;;;;57.37;26.33;;;16.10;99.90;;;;;;5052749;28;20209;-62
2021/08/19 05:15:23;;;;;;;55.10;26.40;;;16.20;99.90;;;;;;5052639;28;20263;-62
2021/08/19 05:17:50;;;;;;;53.23;26.63;;;16.10;99.90;;;;;;5052948;28;20209;-62
2021/08/19 05:20:17;;;;;;;51.47;26.50;;;16.10;99.90;;;;;;5052570;28;20198;-62
2021/08/19 05:22:43;;;;;;;45.90;24.70;;;16.10;99.90;;;;;;5052862;28;20234;-62
2021/08/19 05:25:11;;;;;;;48.90;24.87;;;16.10;99.90;;;;;;5052620;28;20561;-62
2021/08/19 05:27:39;;;;;;;48.60;24.50;;;16.10;99.90;;;;;;5052589;28;20854;-62
2021/08/19 05:30:08;;;;;;;48.57;23.07;;;16.00;99.90;;;;;;5052457;28;20237;-62
2021/08/19 05:32:34;;;;;;;49.27;23.97;;;16.00;99.90;;;;;;5052562;28;20315;-62
2021/08/19 05:35:03;;;;;;;43.70;23.40;;;16.00;99.90;;;;;;5052256;28;20591;-62
2021/08/19 05:37:29;;;;;;;47.17;24.40;;;16.00;99.90;;;;;;5052755;28;20235;-61
2021/08/19 05:39:56;;;;;;;46.13;23.80;;;16.00;99.90;;;;;;5052538;28;20260;-61
2021/08/19 05:42:23;;;;;;;43.40;23.47;;;16.00;99.90;;;;;;5052337;28;20633;-62
2021/08/19 05:44:51;;;;;;;47.63;24.83;;;16.00;99.90;;;;;;5052324;28;20259;-62
2021/08/19 05:47:17;;;;;;;44.30;24.47;;;16.00;99.90;;;;;;5052437;28;20232;-62
2021/08/19 05:49:45;;;;;;;42.63;22.90;;;16.00;99.90;;;;;;5052211;28;20233;-62
2021/08/19 05:52:14;;;;;;;48.00;25.30;;;16.00;99.90;;;;;;5052513;28;20221;-62
2021/08/19 05:54:40;;;;;;;45.77;25.33;;;16.00;99.90;;;;;;5053380;28;20202;-62
2021/08/19 05:57:08;;;;;;;48.93;24.87;;;16.00;99.90;;;;;;5052805;28;20213;-62
2021/08/19 05:59:35;;;;;;;50.53;26.43;;;16.00;99.90;;;;;;5052183;28;20682;-62
2021/08/19 06:02:03;;;;;;;49.97;25.47;;;16.00;99.90;;;;;;5052919;28;20221;-62
2021/08/19 06:04:30;;;;;;;50.93;25.80;;;16.00;99.90;;;;;;5052749;28;20210;-62
2021/08/19 06:06:56;;;;;;;48.53;25.90;;;16.10;99.90;;;;;;5052353;28;20202;-62
2021/08/19 06:09:23;;;;;;;46.97;25.77;;;16.10;99.90;;;;;;5052355;28;20690;-62
2021/08/19 06:11:49;;;;;;;44.67;26.23;;;16.10;99.90;;;;;;5051912;28;20225;-62
2021/08/19 06:14:16;;;;;;;43.67;25.63;;;16.10;99.90;;;;;;5051781;28;20210;-62
2021/08/19 06:16:43;;;;;;;43.90;24.87;;;16.10;99.90;;;;;;5051886;28;20276;-61
2021/08/19 06:19:11;;;;;;;39.93;24.73;;;16.10;99.90;;;;;;5051629;28;20228;-62
2021/08/19 06:21:38;;;;;;;44.07;23.37;;;16.10;99.90;;;;;;5051887;28;20229;-62
2021/08/19 06:24:05;;;;;;;43.33;24.93;;;16.10;99.90;;;;;;5051772;28;20282;-62
2021/08/19 06:26:32;;;;;;;37.67;24.20;;;16.20;99.90;;;;;;5046414;28;20210;-62
2021/08/19 06:28:58;;;;;;;37.50;24.07;;;16.10;99.90;;;;;;5051041;28;20632;-62
2021/08/19 06:31:25;;;;;;;39.07;23.70;;;16.10;99.90;;;;;;5051536;28;20320;-62
2021/08/19 06:33:52;;;;;;;38.87;23.53;;;16.10;99.90;;;;;;5051569;28;20739;-62
2021/08/19 06:36:20;;;;;;;37.17;21.97;;;16.20;99.90;;;;;;5051873;28;20201;-62
2021/08/19 06:38:52;;;;;;;38.37;21.53;;;16.20;99.90;;;;;;5046852;28;20208;-61
2021/08/19 06:41:18;;;;;;;31.97;21.27;;;16.20;99.90;;;;;;5050967;28;20221;-62
2021/08/19 06:43:45;;;;;;;29.23;19.67;;;16.20;99.90;;;;;;5050774;28;20213;-62
2021/08/19 06:46:12;;;;;;;30.80;20.37;;;16.20;99.90;;;;;;5051510;28;20209;-62
2021/08/19 06:48:38;;;;;;;34.97;20.90;;;16.20;99.90;;;;;;5051308;28;20251;-61
2021/08/19 06:51:05;;;;;;;28.53;18.53;;;16.20;99.90;;;;;;5051286;28;20225;-61
2021/08/19 06:53:35;;;;;;;32.20;20.40;;;16.20;99.90;;;;;;5051285;28;20210;-61
2021/08/19 06:56:01;;;;;;;30.20;19.73;;;16.20;99.90;;;;;;5051221;28;20217;-63
2021/08/19 06:58:28;;;;;;;34.50;20.67;;;16.20;99.90;;;;;;5050801;28;20260;-62
2021/08/19 07:00:56;;;;;;;34.87;19.53;;;16.20;99.90;;;;;;5050897;28;20272;-62
2021/08/19 07:03:23;;;;;;;28.27;18.50;;;16.20;99.90;;;;;;5051212;28;20202;-62
2021/08/19 07:05:50;;;;;;;33.10;20.53;;;16.20;99.90;;;;;;5050976;28;20300;-61
2021/08/19 07:08:17;;;;;;;32.53;20.27;;;16.20;99.90;;;;;;5051038;28;20205;-61
2021/08/19 07:10:45;;;;;;;37.00;22.23;;;16.30;99.90;;;;;;5050555;28;20229;-61
2021/08/19 07:13:12;;;;;;;32.33;20.60;;;16.30;99.90;;;;;;5050915;28;20264;-61
2021/08/19 07:15:40;;;;;;;30.53;20.47;;;16.30;99.90;;;;;;5051130;28;20201;-61
2021/08/19 07:18:06;;;;;;;29.90;19.60;;;16.30;99.90;;;;;;5050998;28;20237;-60
2021/08/19 07:20:33;;;;;;;30.00;19.53;;;16.40;99.90;;;;;;5050696;28;20198;-61
2021/08/19 07:23:00;;;;;;;28.80;19.67;;;16.40;99.90;;;;;;5050936;28;20291;-60
2021/08/19 07:25:26;;;;;;;29.90;19.57;;;16.40;88.00;;;;;;5050642;28;20841;-60
2021/08/19 07:27:54;;;;;;;31.73;20.77;;;16.40;91.30;;;;;;5050991;28;20267;-59
2021/08/19 07:30:21;;;;;;;33.60;20.93;;;16.40;92.20;;;;;;5050501;28;20229;-60
2021/08/19 07:32:47;;;;;;;36.57;20.17;;;16.40;64.60;;;;;;5053757;28;20708;-59
2021/08/19 07:35:14;;;;;;;30.37;18.80;;;16.40;48.80;;;;;;5054337;28;20202;-60
2021/08/19 07:37:48;;;;;;;26.80;17.57;;;16.40;19.50;;;;;;5054292;28;20210;-61
2021/08/19 07:40:15;;;;;;;27.07;19.10;;;16.50;31.20;;;;;;5054205;28;20206;-61
2021/08/19 07:42:43;;;;;;;27.47;18.40;;;16.50;37.10;;;;;;5054234;28;20283;-62
2021/08/19 07:45:12;;;;;;;27.60;19.33;;;16.50;19.20;;;;;;5054235;28;20228;-63
2021/08/19 07:47:38;;;;;;;30.80;19.27;;;16.50;1.00;;;;;;5054284;28;20214;-63
2021/08/19 07:50:06;;;;;;;28.70;17.47;;;16.40;1.00;;;;;;5053691;28;20225;-63
2021/08/19 07:52:33;;;;;;;28.53;19.70;;;16.50;1.00;;;;;;5053863;28;20230;-63
2021/08/19 07:55:00;;;;;;;27.03;20.23;;;16.50;19.80;;;;;;5054016;28;20683;-63
2021/08/19 07:57:26;;;;;;;28.70;19.90;;;16.50;16.50;;;;;;5049110;28;20209;-64
2021/08/19 07:59:53;;;;;;;26.57;18.83;;;16.60;15.40;;;;;;5049277;28;20201;-64
2021/08/19 08:02:21;;;;;;;28.83;18.27;;;16.60;1.00;;;;;;5053790;28;20853;-63
2021/08/19 08:04:48;;;;;;;24.77;18.80;;;16.70;1.00;;;;;;5053860;28;20235;-62
2021/08/19 08:07:14;;;;;;;28.57;17.67;;;16.70;1.00;;;;;;5053582;28;20259;-64
2021/08/19 08:09:41;;;;;;;24.73;17.03;;;16.80;1.00;;;;;;5054143;28;20232;-64
2021/08/19 08:12:08;;;;;;;24.63;17.77;;;16.80;1.00;;;;;;5052033;28;20714;-63
2021/08/19 08:14:35;;;;;;;25.03;17.33;;;16.80;1.00;;;;;;5053908;28;20206;-64
2021/08/19 08:17:01;;;;;;;20.17;16.23;;;16.90;1.00;;;;;;5053975;28;20267;-64
2021/08/19 08:19:29;;;;;;;25.40;17.60;;;16.90;1.00;;;;;;5053394;28;20202;-61
2021/08/19 08:21:56;;;;;;;23.27;16.73;;;16.90;99.90;;;;;;5053830;28;20783;-61
2021/08/19 08:24:23;;;;;;;22.47;16.20;;;17.00;1.00;;;;;;5053820;28;20242;-62
2021/08/19 08:26:49;;;;;;;24.37;17.23;;;17.00;99.90;;;;;;5052637;28;20279;-62
2021/08/19 08:29:19;;;;;;;24.33;16.80;;;17.10;99.90;;;;;;5052276;28;20205;-63
2021/08/19 08:31:46;;;;;;;27.13;17.00;;;17.10;99.90;;;;;;5053508;28;20237;-60
2021/08/19 08:34:13;;;;;;;24.43;16.53;;;17.10;99.90;;;;;;5052752;28;20685;-61
2021/08/19 08:36:42;;;;;;;23.53;17.13;;;17.10;99.90;;;;;;5052196;28;20264;-62
2021/08/19 08:39:10;;;;;;;22.13;16.87;;;17.10;99.90;;;;;;5053134;28;20566;-62
2021/08/19 08:41:40;;;;;;;21.63;15.70;;;17.10;99.90;;;;;;5053296;28;20283;-62
2021/08/19 08:44:07;;;;;;;27.07;17.20;;;17.10;99.90;;;;;;5052898;28;20206;-62
2021/08/19 08:46:34;;;;;;;23.10;15.87;;;17.00;99.90;;;;;;5053067;28;20206;-62
2021/08/19 08:49:02;;;;;;;23.07;16.13;;;16.90;99.90;;;;;;5052745;28;20296;-62
2021/08/19 08:51:30;;;;;;;24.87;16.87;;;16.90;1.00;;;;;;5052717;28;20666;-62
2021/08/19 08:53:58;;;;;;;25.73;17.03;;;16.80;1.00;;;;;;5052958;28;20231;-62
2021/08/19 08:56:26;;;;;;;25.30;16.43;;;16.80;1.00;;;;;;5052660;28;20212;-62
2021/08/19 08:58:53;;;;;;;25.57;17.67;;;16.80;1.00;;;;;;5052706;28;20206;-62
2021/08/19 09:01:19;;;;;;;27.73;18.23;;;16.80;1.00;;;;;;5052443;28;20275;-62
2021/08/19 09:03:46;;;;;;;30.07;18.63;;;16.80;1.00;;;;;;5052517;28;20666;-62
2021/08/19 09:06:13;;;;;;;27.00;18.77;;;16.80;1.00;;;;;;5053024;28;20234;-62
2021/08/19 09:08:49;;;;;;;31.07;19.13;;;16.70;1.00;;;;;;5052898;28;20206;-62
2021/08/19 09:11:17;;;;;;;25.23;18.30;;;16.70;1.00;;;;;;5052412;28;20322;-62
2021/08/19 09:13:44;;;;;;;29.47;18.77;;;16.70;1.00;;;;;;5052240;28;20248;-61
2021/08/19 09:16:15;;;;;;;29.67;18.83;;;16.70;19.70;;;;;;5052848;28;20280;-63
2021/08/19 09:18:42;;;;;;;29.87;18.73;;;16.60;52.90;;;;;;5052304;28;20737;-66
2021/08/19 09:21:19;;;;;;;34.33;21.50;;;16.60;49.70;;;;;;5052405;28;20222;-61
2021/08/19 09:23:45;;;;;;;33.37;19.63;;;16.60;83.20;;;;;;5052309;28;20216;-62
2021/08/19 09:26:12;;;;;;;31.87;20.27;;;16.60;99.00;;;;;;5052295;28;20202;-61
2021/08/19 09:28:40;;;;;;;31.93;20.97;;;16.60;99.90;;;;;;5052319;28;20210;-62
2021/08/19 09:31:09;;;;;;;31.10;20.87;;;16.60;99.90;;;;;;5051955;28;20240;-62
2021/08/19 09:33:41;;;;;;;33.13;19.93;;;16.60;99.90;;;;;;5052059;28;20216;-62
2021/08/19 09:36:08;;;;;;;31.83;20.57;;;16.70;99.90;;;;;;5052271;28;20240;-62
2021/08/19 09:38:39;;;;;;;31.57;20.60;;;16.70;99.90;;;;;;5051846;28;20259;-61
2021/08/19 09:41:11;;;;;;;34.87;20.63;;;16.70;99.90;;;;;;5052177;28;20233;-62
2021/08/19 09:43:42;;;;;;;33.07;20.43;;;16.80;99.90;;;;;;5052365;28;20206;-62
2021/08/19 09:46:09;;;;;;;34.77;21.60;;;16.90;99.90;;;;;;5051987;28;20206;-61
2021/08/19 09:48:36;;;;;;;34.07;20.87;;;16.80;99.90;;;;;;5051862;28;20206;-62
2021/08/19 09:51:13;;;;;;;32.07;20.30;;;16.90;99.90;;;;;;5051513;28;20237;-62
2021/08/19 09:53:44;;;;;;;33.13;20.40;;;17.00;99.90;;;;;;5051936;28;20271;-65
2021/08/19 09:56:12;;;;;;;33.73;19.23;;;17.00;99.90;;;;;;5052526;28;20721;-62
2021/08/19 09:58:41;;;;;;;33.93;18.40;;;17.00;83.40;;;;;;5052389;28;20205;-63
2021/08/19 10:01:07;;;;;;;33.50;20.73;;;16.90;59.90;;;;;;5052227;28;20611;-64
2021/08/19 10:03:34;;;;;;;30.50;20.13;;;17.00;64.60;;;;;;5051320;28;20251;-63
2021/08/19 10:06:01;;;;;;;33.83;19.97;;;17.00;72.10;;;;;;5051469;28;20221;-65
2021/08/19 10:08:28;;;;;;;33.77;21.00;;;17.00;34.40;;;;;;5052747;28;20210;-64
2021/08/19 10:10:56;;;;;;;28.33;19.47;;;16.90;17.80;;;;;;5051625;28;20225;-64
2021/08/19 10:13:24;;;;;;;31.03;18.93;;;16.90;1.00;;;;;;5052479;28;20706;-62
2021/08/19 10:15:52;;;;;;;29.97;19.17;;;16.80;1.00;;;;;;5052209;28;20206;-64
2021/08/19 10:18:22;;;;;;;34.57;20.80;;;16.70;1.00;;;;;;5052588;28;20206;-64
2021/08/19 10:21:01;;;;;;;35.47;20.87;;;16.70;1.00;;;;;;5052313;28;20771;-63
2021/08/19 10:23:29;;;;;;;31.13;21.40;;;16.70;25.10;;;;;;5051844;28;20259;-64
2021/08/19 10:26:06;;;;;;;27.90;19.77;;;16.90;93.90;;;;;;5052442;28;20206;-63
2021/08/19 10:28:51;;;;;;;29.10;20.23;;;17.00;99.90;;;;;;5052274;28;20205;-62
2021/08/19 10:31:43;;;;;;;31.90;20.53;;;17.20;95.10;;;;;;5052520;28;20225;-64
2021/08/19 10:34:11;;;;;;;30.77;19.40;;;17.40;49.80;;;;;;5052334;28;20212;-63
2021/08/19 10:36:51;;;;;;;26.77;18.40;;;17.60;1.00;;;;;;5052373;28;20216;-64
2021/08/19 10:39:32;;;;;;;22.97;17.50;;;17.70;1.00;;;;;;5051708;28;20209;-63
2021/08/19 10:41:59;;;;;;;23.57;17.20;;;17.70;99.90;;;;;;5052029;28;20284;-64
2021/08/19 10:44:31;;;;;;;24.20;16.77;;;17.70;99.90;;;;;;5051483;28;20272;-63
2021/08/19 10:47:00;;;;;;;21.60;16.23;;;17.80;94.10;;;;;;5052035;28;20216;-64
2021/08/19 10:49:44;;;;;;;21.23;15.20;;;17.90;1.00;;;;;;5051565;28;20202;-63
2021/08/19 10:52:30;;;;;;;19.70;14.80;;;18.20;1.00;;;;;;5049387;28;20287;-62
2021/08/19 10:55:15;;;;;;;20.80;14.70;;;18.40;1.00;;;;;;5050326;28;20300;-63
2021/08/19 10:57:50;;;;;;;15.80;13.87;;;18.60;1.00;;;;;;5051183;28;20252;-64
2021/08/19 11:00:18;;;;;;;17.10;13.43;;;18.70;1.00;;;;;;5050765;28;20258;-63
2021/08/19 11:02:47;;;;;;;18.73;14.10;;;18.60;99.90;;;;;;5049137;28;20221;-64
2021/08/19 11:05:15;;;;;;;18.47;12.40;;;18.60;1.00;;;;;;5050083;28;20267;-62
2021/08/19 11:07:46;;;;;;;15.97;11.93;;;18.50;99.90;;;;;;5055076;28;20282;-62
2021/08/19 11:10:20;;;;;;;15.03;11.63;;;18.40;1.00;;;;;;5054792;28;20209;-65
2021/08/19 11:12:47;;;;;;;13.53;11.77;;;18.40;1.00;;;;;;5054658;28;20237;-63
2021/08/19 11:15:14;;;;;;;12.80;11.13;;;18.50;1.00;;;;;;5055151;28;20210;-61
2021/08/19 11:17:51;;;;;;;17.17;11.80;;;18.50;99.90;;;;;;5056822;28;20235;-61
2021/08/19 11:20:29;;;;;;;14.50;10.53;;;18.70;99.90;;;;;;5055290;28;20234;-61
2021/08/19 11:23:03;;;;;;;12.83;10.07;;;18.90;99.90;;;;;;5054276;28;20209;-64
2021/08/19 11:25:31;;;;;;;12.53;10.33;;;19.00;1.00;;;;;;5054668;28;20263;-62
2021/08/19 11:28:07;;;;;;;12.63;10.20;;;19.10;53.70;;;;;;5054432;28;20674;-62
2021/08/19 11:30:36;;;;;;;12.10;10.43;;;19.20;1.00;;;;;;5054411;28;20648;-63
2021/08/19 11:33:15;;;;;;;12.53;10.60;;;19.20;99.90;;;;;;5054295;28;20214;-62
2021/08/19 11:35:45;;;;;;;11.50;9.50;;;19.40;1.00;;;;;;5054885;28;20205;-62
2021/08/19 11:38:12;;;;;;;11.13;9.10;;;19.50;99.90;;;;;;5054362;28;20209;-62
2021/08/19 11:40:40;;;;;;;9.87;8.43;;;19.60;99.90;;;;;;5054377;28;20694;-61
2021/08/19 11:43:24;;;;;;;9.63;8.10;;;19.60;89.80;;;;;;5053865;28;20625;-62
2021/08/19 11:45:53;;;;;;;10.37;8.50;;;19.50;99.90;;;;;;5046635;28;20263;-62
2021/08/19 11:48:22;;;;;;;11.67;8.30;;;19.30;1.00;;;;;;5054784;28;20209;-62
2021/08/19 11:50:53;;;;;;;11.60;7.17;;;19.20;1.00;;;;;;5054342;28;21065;-62
2021/08/19 11:53:20;;;;;;;9.20;6.80;;;19.30;99.90;;;;;;5054361;28;20209;-62
2021/08/19 11:55:48;;;;;;;9.17;6.53;;;19.40;99.90;;;;;;5053096;28;20227;-62
2021/08/19 11:58:19;;;;;;;11.70;6.23;;;19.40;1.00;;;;;;5052978;28;20256;-62
2021/08/19 12:00:56;;;;;;;8.20;5.60;;;19.30;99.90;;;;;;5053166;28;20690;-62
2021/08/19 12:03:25;;;;;;;7.00;5.13;;;19.20;99.60;;;;;;5054553;28;20583;-62
2021/08/19 12:06:02;;;;;;;8.57;6.13;;;19.00;58.70;;;;;;5052876;28;20232;-62
2021/08/19 12:08:29;;;;;;;9.13;5.40;;;19.00;1.00;;;;;;5053491;28;20209;-62
2021/08/19 12:10:58;;;;;;;5.33;4.60;;;19.10;99.90;;;;;;5053774;28;20229;-62
2021/08/19 12:13:25;;;;;;;6.77;4.67;;;18.90;97.50;;;;;;5053947;28;20202;-62
2021/08/19 12:15:53;;;;;;;5.93;4.50;;;18.90;1.00;;;;;;5054058;28;20205;-62
2021/08/19 12:18:24;;;;;;;7.60;4.30;;;18.90;99.90;;;;;;5053535;28;20347;-62
2021/08/19 12:21:11;;;;;;;5.27;4.37;;;19.10;1.00;;;;;;5054025;28;20311;-62
2021/08/19 12:23:38;;;;;;;6.40;4.00;;;19.30;21.90;;;;;;5053869;28;20206;-62
2021/08/19 12:26:07;;;;;;;5.67;4.03;;;19.50;65.10;;;;;;5053963;28;20255;-62
2021/08/19 12:28:33;;;;;;;7.17;4.50;;;19.60;1.00;;;;;;5053954;28;20565;-62
2021/08/19 12:31:02;;;;;;;6.17;3.87;;;19.80;99.90;;;;;;5053520;28;20229;-62
2021/08/19 12:33:32;;;;;;;6.47;3.90;;;19.80;99.90;;;;;;5053443;28;20201;-62
2021/08/19 12:36:13;;;;;;;6.47;4.03;;;19.70;99.90;;;;;;5053457;28;20624;-62